sensor_id;sensor_type;location;lat;lon;timestamp;P1;durP1;ratioP1;P2;durP2;ratioP2
25137;SDS011;13112;50.986;4.354;2022-07-10T00:00:35;15.10;;;14.10;;
25137;SDS011;13112;50.986;4.354;2022-07-10T00:03:02;15.32;;;13.98;;
25137;SDS011;13112;50.986;4.354;2022-07-10T00:05:29;15.60;;;14.32;;
25137;SDS011;13112;50.986;4.354;2022-07-10T00:07:55;14.98;;;13.98;;
25137;SDS011;13112;50.986;4.354;2022-07-10T00:10:21;15.57;;;14.38;;
25137;SDS011;13112;50.986;4.354;2022-07-10T00:12:48;15.18;;;13.82;;
25137;SDS011;13112;50.986;4.354;2022-07-10T00:15:14;15.48;;;13.90;;
25137;SDS011;13112;50.986;4.354;2022-07-10T00:17:41;15.63;;;14.63;;
25137;SDS011;13112;50.986;4.354;2022-07-10T00:20:08;15.32;;;14.07;;
25137;SDS011;13112;50.986;4.354;2022-07-10T00:22:35;14.97;;;13.70;;
25137;SDS011;13112;50.986;4.354;2022-07-10T00:25:02;14.45;;;13.52;;
25137;SDS011;13112;50.986;4.354;2022-07-10T00:27:27;14.57;;;13.63;;
25137;SDS011;13112;50.986;4.354;2022-07-10T00:29:53;14.85;;;13.70;;
25137;SDS011;13112;50.986;4.354;2022-07-10T00:32:19;14.43;;;13.52;;
25137;SDS011;13112;50.986;4.354;2022-07-10T00:34:44;14.75;;;13.60;;
25137;SDS011;13112;50.986;4.354;2022-07-10T00:37:10;14.60;;;13.48;;
25137;SDS011;13112;50.986;4.354;2022-07-10T00:39:36;15.15;;;14.05;;
25137;SDS011;13112;50.986;4.354;2022-07-10T00:42:06;16.10;;;14.50;;
25137;SDS011;13112;50.986;4.354;2022-07-10T00:44:37;15.63;;;14.10;;
25137;SDS011;13112;50.986;4.354;2022-07-10T00:47:04;14.83;;;13.83;;
25137;SDS011;13112;50.986;4.354;2022-07-10T00:49:31;15.13;;;14.03;;
25137;SDS011;13112;50.986;4.354;2022-07-10T00:51:57;15.15;;;14.10;;
25137;SDS011;13112;50.986;4.354;2022-07-10T00:54:25;15.47;;;14.27;;
25137;SDS011;13112;50.986;4.354;2022-07-10T00:56:51;15.30;;;14.20;;
25137;SDS011;13112;50.986;4.354;2022-07-10T00:59:18;15.73;;;14.47;;
25137;SDS011;13112;50.986;4.354;2022-07-10T01:01:44;15.57;;;14.43;;
25137;SDS011;13112;50.986;4.354;2022-07-10T01:04:10;16.17;;;14.75;;
25137;SDS011;13112;50.986;4.354;2022-07-10T01:06:36;15.90;;;14.07;;
25137;SDS011;13112;50.986;4.354;2022-07-10T01:09:02;14.63;;;13.63;;
25137;SDS011;13112;50.986;4.354;2022-07-10T01:11:28;15.10;;;14.13;;
25137;SDS011;13112;50.986;4.354;2022-07-10T01:13:58;15.43;;;14.10;;
25137;SDS011;13112;50.986;4.354;2022-07-10T01:16:24;17.13;;;14.20;;
25137;SDS011;13112;50.986;4.354;2022-07-10T01:18:50;16.13;;;14.70;;
25137;SDS011;13112;50.986;4.354;2022-07-10T01:21:29;15.47;;;14.10;;
25137;SDS011;13112;50.986;4.354;2022-07-10T01:23:56;15.43;;;14.23;;
25137;SDS011;13112;50.986;4.354;2022-07-10T01:26:22;15.23;;;13.93;;
25137;SDS011;13112;50.986;4.354;2022-07-10T01:28:49;15.67;;;14.47;;
25137;SDS011;13112;50.986;4.354;2022-07-10T01:31:19;16.07;;;14.80;;
25137;SDS011;13112;50.986;4.354;2022-07-10T01:33:49;15.60;;;14.40;;
25137;SDS011;13112;50.986;4.354;2022-07-10T01:36:16;16.80;;;15.40;;
25137;SDS011;13112;50.986;4.354;2022-07-10T01:38:42;15.90;;;14.77;;
25137;SDS011;13112;50.986;4.354;2022-07-10T01:41:08;16.67;;;15.37;;
25137;SDS011;13112;50.986;4.354;2022-07-10T01:43:35;17.23;;;15.47;;
25137;SDS011;13112;50.986;4.354;2022-07-10T01:46:01;16.93;;;15.50;;
25137;SDS011;13112;50.986;4.354;2022-07-10T01:48:28;16.93;;;15.50;;
25137;SDS011;13112;50.986;4.354;2022-07-10T01:50:54;16.40;;;15.23;;
25137;SDS011;13112;50.986;4.354;2022-07-10T01:53:20;17.47;;;15.90;;
25137;SDS011;13112;50.986;4.354;2022-07-10T01:55:46;17.53;;;15.73;;
25137;SDS011;13112;50.986;4.354;2022-07-10T01:58:12;16.40;;;14.93;;
25137;SDS011;13112;50.986;4.354;2022-07-10T02:00:37;16.83;;;15.33;;
25137;SDS011;13112;50.986;4.354;2022-07-10T02:03:03;16.93;;;15.40;;
25137;SDS011;13112;50.986;4.354;2022-07-10T02:05:47;16.80;;;15.40;;
25137;SDS011;13112;50.986;4.354;2022-07-10T02:08:13;16.43;;;15.20;;
25137;SDS011;13112;50.986;4.354;2022-07-10T02:10:38;16.77;;;15.30;;
25137;SDS011;13112;50.986;4.354;2022-07-10T02:13:04;17.80;;;16.03;;
25137;SDS011;13112;50.986;4.354;2022-07-10T02:15:30;17.63;;;15.83;;
25137;SDS011;13112;50.986;4.354;2022-07-10T02:17:55;16.93;;;15.53;;
25137;SDS011;13112;50.986;4.354;2022-07-10T02:20:21;17.97;;;16.37;;
25137;SDS011;13112;50.986;4.354;2022-07-10T02:22:46;17.43;;;16.03;;
25137;SDS011;13112;50.986;4.354;2022-07-10T02:25:12;17.63;;;15.87;;
25137;SDS011;13112;50.986;4.354;2022-07-10T02:27:38;17.77;;;16.17;;
25137;SDS011;13112;50.986;4.354;2022-07-10T02:30:04;17.07;;;15.77;;
25137;SDS011;13112;50.986;4.354;2022-07-10T02:32:30;17.80;;;15.43;;
25137;SDS011;13112;50.986;4.354;2022-07-10T02:34:56;16.27;;;15.03;;
25137;SDS011;13112;50.986;4.354;2022-07-10T02:37:22;17.57;;;16.13;;
25137;SDS011;13112;50.986;4.354;2022-07-10T02:39:47;17.37;;;15.63;;
25137;SDS011;13112;50.986;4.354;2022-07-10T02:42:13;16.13;;;14.97;;
25137;SDS011;13112;50.986;4.354;2022-07-10T02:44:38;16.73;;;15.00;;
25137;SDS011;13112;50.986;4.354;2022-07-10T02:47:04;18.93;;;17.10;;
25137;SDS011;13112;50.986;4.354;2022-07-10T02:49:30;16.70;;;15.30;;
25137;SDS011;13112;50.986;4.354;2022-07-10T02:51:55;16.07;;;14.77;;
25137;SDS011;13112;50.986;4.354;2022-07-10T02:54:21;16.30;;;14.87;;
25137;SDS011;13112;50.986;4.354;2022-07-10T02:56:46;16.67;;;15.47;;
25137;SDS011;13112;50.986;4.354;2022-07-10T02:59:12;16.63;;;15.43;;
25137;SDS011;13112;50.986;4.354;2022-07-10T03:01:38;17.20;;;15.80;;
25137;SDS011;13112;50.986;4.354;2022-07-10T03:04:04;15.90;;;14.73;;
25137;SDS011;13112;50.986;4.354;2022-07-10T03:06:30;16.80;;;15.30;;
25137;SDS011;13112;50.986;4.354;2022-07-10T03:08:55;16.60;;;15.33;;
25137;SDS011;13112;50.986;4.354;2022-07-10T03:11:21;16.57;;;15.27;;
25137;SDS011;13112;50.986;4.354;2022-07-10T03:13:46;17.37;;;16.00;;
25137;SDS011;13112;50.986;4.354;2022-07-10T03:16:12;17.50;;;16.30;;
25137;SDS011;13112;50.986;4.354;2022-07-10T03:18:38;17.47;;;15.97;;
25137;SDS011;13112;50.986;4.354;2022-07-10T03:21:03;17.40;;;15.90;;
25137;SDS011;13112;50.986;4.354;2022-07-10T03:23:29;17.33;;;15.97;;
25137;SDS011;13112;50.986;4.354;2022-07-10T03:25:55;17.10;;;15.90;;
25137;SDS011;13112;50.986;4.354;2022-07-10T03:28:21;16.93;;;15.67;;
25137;SDS011;13112;50.986;4.354;2022-07-10T03:30:46;17.00;;;15.60;;
25137;SDS011;13112;50.986;4.354;2022-07-10T03:33:12;17.77;;;16.10;;
25137;SDS011;13112;50.986;4.354;2022-07-10T03:35:38;16.93;;;15.57;;
25137;SDS011;13112;50.986;4.354;2022-07-10T03:38:03;16.47;;;15.10;;
25137;SDS011;13112;50.986;4.354;2022-07-10T03:40:29;17.27;;;15.77;;
25137;SDS011;13112;50.986;4.354;2022-07-10T03:42:54;17.40;;;15.73;;
25137;SDS011;13112;50.986;4.354;2022-07-10T03:45:20;16.57;;;15.37;;
25137;SDS011;13112;50.986;4.354;2022-07-10T03:47:46;16.70;;;15.50;;
25137;SDS011;13112;50.986;4.354;2022-07-10T03:50:11;17.77;;;16.20;;
25137;SDS011;13112;50.986;4.354;2022-07-10T03:52:37;17.67;;;16.10;;
25137;SDS011;13112;50.986;4.354;2022-07-10T03:55:03;17.17;;;15.77;;
25137;SDS011;13112;50.986;4.354;2022-07-10T03:57:29;17.43;;;15.93;;
25137;SDS011;13112;50.986;4.354;2022-07-10T04:00:13;17.57;;;15.90;;
25137;SDS011;13112;50.986;4.354;2022-07-10T04:02:39;16.90;;;15.50;;
25137;SDS011;13112;50.986;4.354;2022-07-10T04:05:08;17.43;;;15.60;;
25137;SDS011;13112;50.986;4.354;2022-07-10T04:07:35;17.17;;;15.67;;
25137;SDS011;13112;50.986;4.354;2022-07-10T04:10:01;16.77;;;15.63;;
25137;SDS011;13112;50.986;4.354;2022-07-10T04:12:28;17.03;;;15.83;;
25137;SDS011;13112;50.986;4.354;2022-07-10T04:14:53;17.50;;;15.90;;
25137;SDS011;13112;50.986;4.354;2022-07-10T04:17:19;17.30;;;15.97;;
25137;SDS011;13112;50.986;4.354;2022-07-10T04:19:45;17.70;;;16.13;;
25137;SDS011;13112;50.986;4.354;2022-07-10T04:22:11;17.60;;;16.03;;
25137;SDS011;13112;50.986;4.354;2022-07-10T04:24:37;16.07;;;14.93;;
25137;SDS011;13112;50.986;4.354;2022-07-10T04:27:03;17.00;;;15.90;;
25137;SDS011;13112;50.986;4.354;2022-07-10T04:29:29;18.07;;;16.07;;
25137;SDS011;13112;50.986;4.354;2022-07-10T04:31:56;16.70;;;15.50;;
25137;SDS011;13112;50.986;4.354;2022-07-10T04:34:21;16.33;;;15.03;;
25137;SDS011;13112;50.986;4.354;2022-07-10T04:36:47;16.40;;;15.20;;
25137;SDS011;13112;50.986;4.354;2022-07-10T04:39:13;16.77;;;15.67;;
25137;SDS011;13112;50.986;4.354;2022-07-10T04:41:38;17.03;;;15.53;;
25137;SDS011;13112;50.986;4.354;2022-07-10T04:44:04;17.20;;;15.67;;
25137;SDS011;13112;50.986;4.354;2022-07-10T04:46:30;16.73;;;15.33;;
25137;SDS011;13112;50.986;4.354;2022-07-10T04:48:55;17.00;;;15.50;;
25137;SDS011;13112;50.986;4.354;2022-07-10T04:51:21;17.30;;;15.93;;
25137;SDS011;13112;50.986;4.354;2022-07-10T04:53:48;17.13;;;15.80;;
25137;SDS011;13112;50.986;4.354;2022-07-10T04:56:14;16.70;;;15.27;;
25137;SDS011;13112;50.986;4.354;2022-07-10T04:58:40;17.27;;;15.93;;
25137;SDS011;13112;50.986;4.354;2022-07-10T05:01:06;17.53;;;15.80;;
25137;SDS011;13112;50.986;4.354;2022-07-10T05:03:31;17.90;;;16.30;;
25137;SDS011;13112;50.986;4.354;2022-07-10T05:05:57;17.42;;;16.15;;
25137;SDS011;13112;50.986;4.354;2022-07-10T05:08:23;17.13;;;15.63;;
25137;SDS011;13112;50.986;4.354;2022-07-10T05:10:48;16.65;;;15.30;;
25137;SDS011;13112;50.986;4.354;2022-07-10T05:13:14;17.63;;;16.30;;
25137;SDS011;13112;50.986;4.354;2022-07-10T05:15:40;16.52;;;15.32;;
25137;SDS011;13112;50.986;4.354;2022-07-10T05:18:05;17.08;;;15.75;;
25137;SDS011;13112;50.986;4.354;2022-07-10T05:20:31;16.80;;;15.60;;
25137;SDS011;13112;50.986;4.354;2022-07-10T05:22:58;18.08;;;16.25;;
25137;SDS011;13112;50.986;4.354;2022-07-10T05:25:24;18.23;;;16.45;;
25137;SDS011;13112;50.986;4.354;2022-07-10T05:27:51;16.83;;;15.50;;
25137;SDS011;13112;50.986;4.354;2022-07-10T05:30:17;17.20;;;15.80;;
25137;SDS011;13112;50.986;4.354;2022-07-10T05:32:43;16.80;;;15.27;;
25137;SDS011;13112;50.986;4.354;2022-07-10T05:35:09;16.75;;;15.40;;
25137;SDS011;13112;50.986;4.354;2022-07-10T05:37:36;16.55;;;15.45;;
25137;SDS011;13112;50.986;4.354;2022-07-10T05:40:01;16.95;;;15.30;;
25137;SDS011;13112;50.986;4.354;2022-07-10T05:42:28;16.27;;;15.07;;
25137;SDS011;13112;50.986;4.354;2022-07-10T05:44:53;16.33;;;15.05;;
25137;SDS011;13112;50.986;4.354;2022-07-10T05:47:19;16.23;;;14.93;;
25137;SDS011;13112;50.986;4.354;2022-07-10T05:49:45;16.45;;;15.10;;
25137;SDS011;13112;50.986;4.354;2022-07-10T05:52:10;15.70;;;14.60;;
25137;SDS011;13112;50.986;4.354;2022-07-10T05:54:36;16.08;;;14.52;;
25137;SDS011;13112;50.986;4.354;2022-07-10T05:57:02;15.70;;;14.55;;
25137;SDS011;13112;50.986;4.354;2022-07-10T05:59:28;16.02;;;14.35;;
25137;SDS011;13112;50.986;4.354;2022-07-10T06:01:54;15.95;;;14.52;;
25137;SDS011;13112;50.986;4.354;2022-07-10T06:04:19;15.52;;;14.40;;
25137;SDS011;13112;50.986;4.354;2022-07-10T06:06:45;17.27;;;15.85;;
25137;SDS011;13112;50.986;4.354;2022-07-10T06:09:11;16.05;;;14.85;;
25137;SDS011;13112;50.986;4.354;2022-07-10T06:11:37;15.68;;;14.20;;
25137;SDS011;13112;50.986;4.354;2022-07-10T06:14:03;15.48;;;14.10;;
25137;SDS011;13112;50.986;4.354;2022-07-10T06:16:28;14.40;;;13.30;;
25137;SDS011;13112;50.986;4.354;2022-07-10T06:18:54;14.32;;;13.35;;
25137;SDS011;13112;50.986;4.354;2022-07-10T06:21:20;15.32;;;14.02;;
25137;SDS011;13112;50.986;4.354;2022-07-10T06:23:48;15.05;;;13.80;;
25137;SDS011;13112;50.986;4.354;2022-07-10T06:26:13;15.00;;;13.80;;
25137;SDS011;13112;50.986;4.354;2022-07-10T06:28:39;14.90;;;13.70;;
25137;SDS011;13112;50.986;4.354;2022-07-10T06:31:05;14.90;;;13.80;;
25137;SDS011;13112;50.986;4.354;2022-07-10T06:33:31;14.93;;;13.90;;
25137;SDS011;13112;50.986;4.354;2022-07-10T06:35:57;14.90;;;13.75;;
25137;SDS011;13112;50.986;4.354;2022-07-10T06:38:23;14.90;;;13.57;;
25137;SDS011;13112;50.986;4.354;2022-07-10T06:40:49;15.25;;;13.75;;
25137;SDS011;13112;50.986;4.354;2022-07-10T06:43:16;14.40;;;13.50;;
25137;SDS011;13112;50.986;4.354;2022-07-10T06:45:42;15.15;;;13.85;;
25137;SDS011;13112;50.986;4.354;2022-07-10T06:48:07;14.77;;;13.68;;
25137;SDS011;13112;50.986;4.354;2022-07-10T06:50:33;14.70;;;13.68;;
25137;SDS011;13112;50.986;4.354;2022-07-10T06:52:59;14.55;;;13.38;;
25137;SDS011;13112;50.986;4.354;2022-07-10T06:55:27;14.60;;;13.27;;
25137;SDS011;13112;50.986;4.354;2022-07-10T06:57:53;15.55;;;13.93;;
25137;SDS011;13112;50.986;4.354;2022-07-10T07:00:19;14.15;;;13.10;;
25137;SDS011;13112;50.986;4.354;2022-07-10T07:02:45;13.85;;;12.63;;
25137;SDS011;13112;50.986;4.354;2022-07-10T07:05:11;13.63;;;12.65;;
25137;SDS011;13112;50.986;4.354;2022-07-10T07:07:37;13.45;;;12.48;;
25137;SDS011;13112;50.986;4.354;2022-07-10T07:10:03;13.80;;;12.73;;
25137;SDS011;13112;50.986;4.354;2022-07-10T07:12:29;14.50;;;13.50;;
25137;SDS011;13112;50.986;4.354;2022-07-10T07:14:55;13.52;;;12.63;;
25137;SDS011;13112;50.986;4.354;2022-07-10T07:17:21;14.60;;;13.25;;
25137;SDS011;13112;50.986;4.354;2022-07-10T07:19:48;13.73;;;12.73;;
25137;SDS011;13112;50.986;4.354;2022-07-10T07:22:33;13.60;;;12.52;;
25137;SDS011;13112;50.986;4.354;2022-07-10T07:25:17;13.20;;;12.30;;
25137;SDS011;13112;50.986;4.354;2022-07-10T07:27:43;14.05;;;12.95;;
25137;SDS011;13112;50.986;4.354;2022-07-10T07:30:10;12.98;;;12.10;;
25137;SDS011;13112;50.986;4.354;2022-07-10T07:32:38;14.45;;;12.95;;
25137;SDS011;13112;50.986;4.354;2022-07-10T07:35:04;12.50;;;11.70;;
25137;SDS011;13112;50.986;4.354;2022-07-10T07:37:49;13.05;;;12.00;;
25137;SDS011;13112;50.986;4.354;2022-07-10T07:40:18;12.68;;;11.82;;
25137;SDS011;13112;50.986;4.354;2022-07-10T07:42:46;12.80;;;11.73;;
25137;SDS011;13112;50.986;4.354;2022-07-10T07:45:12;12.43;;;11.63;;
25137;SDS011;13112;50.986;4.354;2022-07-10T07:47:48;12.05;;;11.25;;
25137;SDS011;13112;50.986;4.354;2022-07-10T07:50:16;11.57;;;10.70;;
25137;SDS011;13112;50.986;4.354;2022-07-10T07:52:43;12.73;;;11.23;;
25137;SDS011;13112;50.986;4.354;2022-07-10T07:55:10;11.60;;;10.65;;
25137;SDS011;13112;50.986;4.354;2022-07-10T07:57:36;11.85;;;10.82;;
25137;SDS011;13112;50.986;4.354;2022-07-10T08:00:03;14.50;;;13.30;;
25137;SDS011;13112;50.986;4.354;2022-07-10T08:02:30;13.32;;;12.32;;
25137;SDS011;13112;50.986;4.354;2022-07-10T08:04:56;13.15;;;11.90;;
25137;SDS011;13112;50.986;4.354;2022-07-10T08:07:22;13.32;;;12.10;;
25137;SDS011;13112;50.986;4.354;2022-07-10T08:09:47;14.00;;;12.90;;
25137;SDS011;13112;50.986;4.354;2022-07-10T08:12:14;13.98;;;12.75;;
25137;SDS011;13112;50.986;4.354;2022-07-10T08:14:40;13.63;;;12.32;;
25137;SDS011;13112;50.986;4.354;2022-07-10T08:17:05;13.15;;;12.20;;
25137;SDS011;13112;50.986;4.354;2022-07-10T08:19:31;13.05;;;11.95;;
25137;SDS011;13112;50.986;4.354;2022-07-10T08:21:57;13.13;;;12.23;;
25137;SDS011;13112;50.986;4.354;2022-07-10T08:24:22;12.63;;;11.55;;
25137;SDS011;13112;50.986;4.354;2022-07-10T08:26:48;13.75;;;12.35;;
25137;SDS011;13112;50.986;4.354;2022-07-10T08:29:13;12.75;;;11.77;;
25137;SDS011;13112;50.986;4.354;2022-07-10T08:31:40;12.70;;;11.73;;
25137;SDS011;13112;50.986;4.354;2022-07-10T08:34:05;13.27;;;11.93;;
25137;SDS011;13112;50.986;4.354;2022-07-10T08:36:31;13.02;;;12.10;;
25137;SDS011;13112;50.986;4.354;2022-07-10T08:38:56;15.70;;;12.75;;
25137;SDS011;13112;50.986;4.354;2022-07-10T08:41:27;13.05;;;12.15;;
25137;SDS011;13112;50.986;4.354;2022-07-10T08:43:54;13.52;;;12.52;;
25137;SDS011;13112;50.986;4.354;2022-07-10T08:46:24;14.07;;;12.98;;
25137;SDS011;13112;50.986;4.354;2022-07-10T08:48:52;13.52;;;12.60;;
25137;SDS011;13112;50.986;4.354;2022-07-10T08:54:25;13.13;;;12.20;;
25137;SDS011;13112;50.986;4.354;2022-07-10T08:56:53;12.48;;;11.57;;
25137;SDS011;13112;50.986;4.354;2022-07-10T08:59:21;12.77;;;11.90;;
25137;SDS011;13112;50.986;4.354;2022-07-10T09:01:47;13.35;;;11.88;;
25137;SDS011;13112;50.986;4.354;2022-07-10T09:04:17;12.45;;;11.70;;
25137;SDS011;13112;50.986;4.354;2022-07-10T09:06:44;13.00;;;11.80;;
25137;SDS011;13112;50.986;4.354;2022-07-10T09:09:09;12.60;;;11.60;;
25137;SDS011;13112;50.986;4.354;2022-07-10T09:11:37;12.80;;;12.00;;
25137;SDS011;13112;50.986;4.354;2022-07-10T09:14:06;12.90;;;11.85;;
25137;SDS011;13112;50.986;4.354;2022-07-10T09:16:36;13.23;;;12.15;;
25137;SDS011;13112;50.986;4.354;2022-07-10T09:21:50;13.13;;;12.10;;
25137;SDS011;13112;50.986;4.354;2022-07-10T09:24:17;13.20;;;12.10;;
25137;SDS011;13112;50.986;4.354;2022-07-10T09:26:48;12.80;;;11.95;;
25137;SDS011;13112;50.986;4.354;2022-07-10T09:29:26;13.00;;;12.20;;
25137;SDS011;13112;50.986;4.354;2022-07-10T09:31:55;13.15;;;12.25;;
25137;SDS011;13112;50.986;4.354;2022-07-10T09:37:37;13.02;;;12.02;;
25137;SDS011;13112;50.986;4.354;2022-07-10T09:40:05;14.40;;;12.45;;
25137;SDS011;13112;50.986;4.354;2022-07-10T09:42:36;12.98;;;12.02;;
25137;SDS011;13112;50.986;4.354;2022-07-10T09:47:41;13.25;;;12.25;;
25137;SDS011;13112;50.986;4.354;2022-07-10T09:50:29;12.90;;;12.00;;
25137;SDS011;13112;50.986;4.354;2022-07-10T09:53:03;12.90;;;12.00;;
25137;SDS011;13112;50.986;4.354;2022-07-10T09:55:30;12.40;;;11.50;;
25137;SDS011;13112;50.986;4.354;2022-07-10T10:00:27;12.20;;;11.30;;
25137;SDS011;13112;50.986;4.354;2022-07-10T10:02:54;12.38;;;11.48;;
25137;SDS011;13112;50.986;4.354;2022-07-10T10:05:22;12.68;;;11.70;;
25137;SDS011;13112;50.986;4.354;2022-07-10T10:08:12;13.02;;;12.20;;
25137;SDS011;13112;50.986;4.354;2022-07-10T10:10:51;11.98;;;11.02;;
25137;SDS011;13112;50.986;4.354;2022-07-10T10:13:20;12.70;;;11.70;;
25137;SDS011;13112;50.986;4.354;2022-07-10T10:15:48;12.75;;;11.85;;
25137;SDS011;13112;50.986;4.354;2022-07-10T10:18:26;12.60;;;11.80;;
25137;SDS011;13112;50.986;4.354;2022-07-10T10:20:52;12.95;;;12.05;;
25137;SDS011;13112;50.986;4.354;2022-07-10T10:23:20;11.95;;;11.15;;
25137;SDS011;13112;50.986;4.354;2022-07-10T10:25:54;15.88;;;11.15;;
25137;SDS011;13112;50.986;4.354;2022-07-10T10:28:21;12.85;;;11.90;;
25137;SDS011;13112;50.986;4.354;2022-07-10T10:30:49;12.75;;;11.70;;
25137;SDS011;13112;50.986;4.354;2022-07-10T10:36:08;12.80;;;11.80;;
25137;SDS011;13112;50.986;4.354;2022-07-10T10:49:19;12.50;;;11.50;;
25137;SDS011;13112;50.986;4.354;2022-07-10T10:52:02;11.90;;;11.10;;
25137;SDS011;13112;50.986;4.354;2022-07-10T10:57:21;12.00;;;11.05;;
25137;SDS011;13112;50.986;4.354;2022-07-10T10:59:49;12.07;;;11.27;;
25137;SDS011;13112;50.986;4.354;2022-07-10T11:07:55;12.60;;;11.57;;
25137;SDS011;13112;50.986;4.354;2022-07-10T11:10:44;11.85;;;11.00;;
25137;SDS011;13112;50.986;4.354;2022-07-10T11:13:13;11.90;;;11.10;;
25137;SDS011;13112;50.986;4.354;2022-07-10T11:18:11;12.00;;;11.18;;
25137;SDS011;13112;50.986;4.354;2022-07-10T11:20:40;12.52;;;11.50;;
25137;SDS011;13112;50.986;4.354;2022-07-10T11:26:07;12.63;;;11.65;;
25137;SDS011;13112;50.986;4.354;2022-07-10T11:28:55;12.15;;;11.35;;
25137;SDS011;13112;50.986;4.354;2022-07-10T11:31:23;12.57;;;11.55;;
25137;SDS011;13112;50.986;4.354;2022-07-10T11:33:50;12.10;;;11.30;;
25137;SDS011;13112;50.986;4.354;2022-07-10T11:36:19;12.35;;;11.35;;
25137;SDS011;13112;50.986;4.354;2022-07-10T11:38:55;12.65;;;11.68;;
25137;SDS011;13112;50.986;4.354;2022-07-10T11:41:22;12.60;;;11.70;;
25137;SDS011;13112;50.986;4.354;2022-07-10T11:43:55;11.82;;;10.93;;
25137;SDS011;13112;50.986;4.354;2022-07-10T11:46:26;11.30;;;10.45;;
25137;SDS011;13112;50.986;4.354;2022-07-10T11:48:53;12.50;;;11.52;;
25137;SDS011;13112;50.986;4.354;2022-07-10T11:51:25;12.07;;;11.18;;
25137;SDS011;13112;50.986;4.354;2022-07-10T11:53:59;11.80;;;11.10;;
25137;SDS011;13112;50.986;4.354;2022-07-10T11:56:28;12.00;;;11.18;;
25137;SDS011;13112;50.986;4.354;2022-07-10T11:59:01;11.77;;;11.05;;
25137;SDS011;13112;50.986;4.354;2022-07-10T12:01:28;12.40;;;11.43;;
25137;SDS011;13112;50.986;4.354;2022-07-10T12:04:04;12.07;;;11.25;;
25137;SDS011;13112;50.986;4.354;2022-07-10T12:06:31;12.27;;;11.45;;
25137;SDS011;13112;50.986;4.354;2022-07-10T12:09:05;11.75;;;11.05;;
25137;SDS011;13112;50.986;4.354;2022-07-10T12:11:35;11.77;;;10.98;;
25137;SDS011;13112;50.986;4.354;2022-07-10T12:14:35;11.27;;;10.50;;
25137;SDS011;13112;50.986;4.354;2022-07-10T12:16:55;11.50;;;10.70;;
25137;SDS011;13112;50.986;4.354;2022-07-10T12:19:25;11.55;;;10.75;;
25137;SDS011;13112;50.986;4.354;2022-07-10T12:21:55;11.70;;;10.88;;
25137;SDS011;13112;50.986;4.354;2022-07-10T12:24:21;12.05;;;11.05;;
25137;SDS011;13112;50.986;4.354;2022-07-10T12:26:49;11.77;;;10.88;;
25137;SDS011;13112;50.986;4.354;2022-07-10T12:29:23;12.02;;;11.23;;
25137;SDS011;13112;50.986;4.354;2022-07-10T12:31:49;12.32;;;11.32;;
25137;SDS011;13112;50.986;4.354;2022-07-10T12:34:17;11.60;;;10.90;;
25137;SDS011;13112;50.986;4.354;2022-07-10T12:36:44;12.40;;;11.60;;
25137;SDS011;13112;50.986;4.354;2022-07-10T12:39:13;12.40;;;11.50;;
25137;SDS011;13112;50.986;4.354;2022-07-10T12:41:59;12.70;;;11.82;;
25137;SDS011;13112;50.986;4.354;2022-07-10T12:44:50;11.60;;;10.70;;
25137;SDS011;13112;50.986;4.354;2022-07-10T12:47:16;11.73;;;10.82;;
25137;SDS011;13112;50.986;4.354;2022-07-10T12:52:28;11.65;;;10.85;;
25137;SDS011;13112;50.986;4.354;2022-07-10T12:57:54;12.18;;;11.30;;
25137;SDS011;13112;50.986;4.354;2022-07-10T13:00:22;11.90;;;11.10;;
25137;SDS011;13112;50.986;4.354;2022-07-10T13:02:59;12.25;;;11.45;;
25137;SDS011;13112;50.986;4.354;2022-07-10T13:05:35;12.15;;;11.35;;
25137;SDS011;13112;50.986;4.354;2022-07-10T13:08:43;12.93;;;11.93;;
25137;SDS011;13112;50.986;4.354;2022-07-10T13:11:08;13.38;;;12.27;;
25137;SDS011;13112;50.986;4.354;2022-07-10T13:13:34;12.43;;;11.70;;
25137;SDS011;13112;50.986;4.354;2022-07-10T13:16:02;12.68;;;11.63;;
25137;SDS011;13112;50.986;4.354;2022-07-10T13:18:28;12.60;;;11.55;;
25137;SDS011;13112;50.986;4.354;2022-07-10T13:20:54;12.60;;;11.80;;
25137;SDS011;13112;50.986;4.354;2022-07-10T13:23:22;12.20;;;11.50;;
25137;SDS011;13112;50.986;4.354;2022-07-10T13:25:50;12.38;;;11.65;;
25137;SDS011;13112;50.986;4.354;2022-07-10T13:28:19;12.90;;;11.80;;
25137;SDS011;13112;50.986;4.354;2022-07-10T13:30:45;12.30;;;11.60;;
25137;SDS011;13112;50.986;4.354;2022-07-10T13:33:11;12.95;;;12.05;;
25137;SDS011;13112;50.986;4.354;2022-07-10T13:35:37;13.02;;;12.07;;
25137;SDS011;13112;50.986;4.354;2022-07-10T13:38:04;13.48;;;12.40;;
25137;SDS011;13112;50.986;4.354;2022-07-10T13:40:30;12.50;;;11.50;;
25137;SDS011;13112;50.986;4.354;2022-07-10T13:43:00;12.13;;;11.32;;
25137;SDS011;13112;50.986;4.354;2022-07-10T13:45:26;12.65;;;11.90;;
25137;SDS011;13112;50.986;4.354;2022-07-10T13:47:55;12.65;;;11.80;;
25137;SDS011;13112;50.986;4.354;2022-07-10T13:50:21;12.00;;;11.10;;
25137;SDS011;13112;50.986;4.354;2022-07-10T13:52:47;13.02;;;11.98;;
25137;SDS011;13112;50.986;4.354;2022-07-10T13:55:13;11.90;;;11.10;;
25137;SDS011;13112;50.986;4.354;2022-07-10T13:57:39;11.60;;;10.90;;
25137;SDS011;13112;50.986;4.354;2022-07-10T14:00:05;12.93;;;12.02;;
25137;SDS011;13112;50.986;4.354;2022-07-10T14:02:32;12.75;;;12.02;;
25137;SDS011;13112;50.986;4.354;2022-07-10T14:04:58;11.90;;;11.00;;
25137;SDS011;13112;50.986;4.354;2022-07-10T14:07:23;11.98;;;11.20;;
25137;SDS011;13112;50.986;4.354;2022-07-10T14:09:49;11.82;;;11.13;;
25137;SDS011;13112;50.986;4.354;2022-07-10T14:12:15;12.10;;;11.00;;
25137;SDS011;13112;50.986;4.354;2022-07-10T14:14:41;11.60;;;10.85;;
25137;SDS011;13112;50.986;4.354;2022-07-10T14:17:06;11.90;;;11.10;;
25137;SDS011;13112;50.986;4.354;2022-07-10T14:19:32;11.80;;;11.00;;
25137;SDS011;13112;50.986;4.354;2022-07-10T14:21:58;12.18;;;11.35;;
25137;SDS011;13112;50.986;4.354;2022-07-10T14:24:24;11.73;;;10.93;;
25137;SDS011;13112;50.986;4.354;2022-07-10T14:26:50;12.60;;;11.70;;
25137;SDS011;13112;50.986;4.354;2022-07-10T14:29:18;12.23;;;11.40;;
25137;SDS011;13112;50.986;4.354;2022-07-10T14:31:44;12.18;;;11.48;;
25137;SDS011;13112;50.986;4.354;2022-07-10T14:34:13;12.95;;;11.93;;
25137;SDS011;13112;50.986;4.354;2022-07-10T14:36:38;12.30;;;11.50;;
25137;SDS011;13112;50.986;4.354;2022-07-10T14:39:04;12.50;;;11.70;;
25137;SDS011;13112;50.986;4.354;2022-07-10T14:41:30;12.20;;;11.40;;
25137;SDS011;13112;50.986;4.354;2022-07-10T14:43:56;12.45;;;11.60;;
25137;SDS011;13112;50.986;4.354;2022-07-10T14:46:21;11.68;;;11.00;;
25137;SDS011;13112;50.986;4.354;2022-07-10T14:48:47;12.55;;;11.60;;
25137;SDS011;13112;50.986;4.354;2022-07-10T14:51:12;12.35;;;11.38;;
25137;SDS011;13112;50.986;4.354;2022-07-10T14:53:39;12.10;;;11.30;;
25137;SDS011;13112;50.986;4.354;2022-07-10T14:56:06;12.27;;;11.48;;
25137;SDS011;13112;50.986;4.354;2022-07-10T14:58:32;12.60;;;11.50;;
25137;SDS011;13112;50.986;4.354;2022-07-10T15:00:58;12.73;;;11.82;;
25137;SDS011;13112;50.986;4.354;2022-07-10T15:03:25;11.98;;;11.27;;
25137;SDS011;13112;50.986;4.354;2022-07-10T15:05:51;12.60;;;11.55;;
25137;SDS011;13112;50.986;4.354;2022-07-10T15:08:24;11.73;;;10.93;;
25137;SDS011;13112;50.986;4.354;2022-07-10T15:10:50;11.93;;;11.13;;